Terminal Aerodrome Forecast
Issued by NWS Omaha/Valley, NE

Home | Current Version | Previous Version | Graphics & Text | Print | Product List | Glossary On
Versions: 1 2 3 4 5 6 7 8 9 10 11 12
000
FTUS43 KOAX 161724 AAA
TAFOFK
TAF AMD
KOFK 161724Z 1617/1718 32010KT P6SM FEW110
     FM162000 31006KT P6SM FEW120
     FM162300 23004KT P6SM FEW250
     FM170900 21008KT P6SM SKC=

USA.gov is the U.S. government's official web portal to all federal, state and local government web resources and services.